Tiempo atmosférico en la estación meteorológica de Llanes, Asturias (10 m.)



Fecha
DESCASC
Temp. máxima en grados centígrados (hora)
DESCASC
Temp. mínima en grados centígrados (hora)
DESCASC
Temp. media en grados centígrados
DESCASC
Racha de viento máxima en m/sg (hora)
DESCASC
Velocidad máxima media en intervalos de 10 minutos(hora)
DESCASC
Precipitaciones diarias en mm
DESCASC
Precipitaciones de 00:00 a 06:00 en mm
DESCASC
Precipitaciones de 06:00 a 12:00 en mm
DESCASC
Precipitaciones de 12:00 a 18:00 en mm
DESCASC
Precipitaciones de 18:00 a 24:00 en mm
DESCASC
18-08-2019 -- (--) -- (--) -- -- (--) -- (--) -- -- 0.6 11.2 --
17-08-2019 -- (--) -- (--) -- -- (--) -- (--) -- -- 0 0 --
16-08-2019 -- (--) -- (--) -- -- (--) -- (--) -- -- 0 0 --
15-08-2019 -- (--) -- (--) -- -- (--) -- (--) -- -- 0 0 --
14-08-2019 -- (--) -- (--) -- -- (--) -- (--) -- -- 0 0 0
13-08-2019 -- (--) -- (--) -- -- (--) -- (--) -- -- 0 -- --
12-08-2019 -- (--) -- (--) -- -- (--) -- (--) -- -- 0 0 --
11-08-2019 -- (--) -- (--) -- -- (--) -- (--) -- -- 0.4 6.2 --
10-08-2019 -- (--) -- (--) -- -- (--) -- (--) -- -- -- -- --
09-08-2019 -- (--) -- (--) -- -- (--) -- (--) -- -- 0.8 -- --
08-08-2019 -- (--) -- (--) -- -- (--) -- (--) -- -- 0 -- --
07-08-2019 -- (--) -- (--) -- -- (--) -- (--) -- -- 0 -- --
06-08-2019 -- (--) -- (--) -- -- (--) -- (--) -- -- 0 -- --
05-08-2019 -- (--) -- (--) -- -- (--) -- (--) -- -- -- -- --
04-08-2019 -- (--) -- (--) -- -- (--) -- (--) -- -- 0.2 -- --
03-08-2019 -- (--) -- (--) -- -- (--) -- (--) -- -- 0 -- --
02-08-2019 -- (--) -- (--) -- -- (--) -- (--) -- -- -- -- --
01-08-2019 -- (--) -- (--) -- -- (--) -- (--) -- -- -- -- --
31-07-2019 -- (--) -- (--) -- -- (--) -- (--) -- -- -- -- --
30-07-2019 -- (--) -- (--) -- -- (--) -- (--) -- -- -- -- --
29-07-2019 -- (--) -- (--) -- -- (--) -- (--) -- -- -- -- --
28-07-2019 -- (--) -- (--) -- -- (--) -- (--) -- -- -- -- --
27-07-2019 -- (--) -- (--) -- -- (--) -- (--) -- -- -- -- --
26-07-2019 -- (--) -- (--) -- -- (--) -- (--) -- -- -- -- --
25-07-2019 -- (--) -- (--) -- -- (--) -- (--) -- -- -- -- --
24-07-2019 -- (--) -- (--) -- -- (--) -- (--) -- -- -- -- --
23-07-2019 -- (--) -- (--) -- -- (--) -- (--) -- -- -- -- --
22-07-2019 -- (--) -- (--) -- -- (--) -- (--) -- -- -- -- --
21-07-2019 -- (--) -- (--) -- -- (--) -- (--) -- -- -- -- --

Gráficas

Temp. máximas Temp. mínimas Temp. medias Precipitaciones Rachas de viento máximas Velocidades máximas media en intervalos de 10 minutos

Datos horarios

Fecha y hora oficial Temperatura (ºC) Velocidad del viento (km/h) Dirección del viento Racha (km/h) Dirección de racha Precipitación (mm) Presión (hPa) Tendencia (hPa) Humedad (%)
2019-08-19 23:00:00 17.1 6 Sur 22 Sur 0 1021.2 0.8 82
2019-08-19 22:00:00 17 6 Sudoeste 13 Sudoeste 0.6 1021 0.6 83
2019-08-19 21:00:00 17.8 5 Sur 12 Sur 0.2 1020.9 0.8 79
2019-08-19 20:00:00 17.9 6 Sudoeste 19 Sur 0 1020.4 0.4 77
2019-08-19 19:00:00 18.2 9 Sur 21 Sudeste 0 1020.4 0.2 74
2019-08-19 18:00:00 19.6 13 Este 21 Este 0 1020.1 -0.3 66
2019-08-19 17:00:00 19.7 11 Este 24 Este 0 1020 -0.3 68
2019-08-19 16:00:00 19.7 15 Nordeste 30 Nordeste 0 1020.2 0.2 68
2019-08-19 15:00:00 20.4 15 Este 22 Este 0 1020.4 0.6 64
2019-08-19 14:00:00 21.1 9 Nordeste 18 Nordeste 0 1020.3 0.7 61
2019-08-19 13:00:00 21.1 8 Este 15 Este 0 1020 0.5 62
2019-08-19 12:00:00 20.3 7 Nordeste 20 Sudeste 0 1019.8 0.4 64
2019-08-19 11:00:00 19.1 8 Sudeste 17 Sudeste 0 1019.6 0.3 68
2019-08-19 10:00:00 17.4 3 Sudoeste 16 Sur 0 1019.5 0.8 78
2019-08-19 09:00:00 16.4 10 Sur 26 Sudeste 0 1019.4 0.9 82
2019-08-19 08:00:00 16.7 9 Sur 24 Este 0 1019.3 0.2 80
2019-08-19 07:00:00 16.9 0 Calma 9 Sudoeste 0 1018.7 -0.2 78
2019-08-19 06:00:00 16.7 7 Sudoeste 13 Oeste 0 1018.5 -0.6 77
2019-08-19 05:00:00 16.8 6 Oeste 15 Oeste 0 1019.1 -0.2 77
2019-08-19 04:00:00 16.8 5 Oeste 13 Sudoeste 0 1018.9 -- 76
2019-08-19 03:00:00 16.7 7 Oeste -- -- -- 1019.1 -- 79
2019-08-19 02:00:00 16.7 6 Sudoeste -- -- -- 1019.3 -- 81
2019-08-19 01:00:00 -- -- -- -- -- -- -- -- --
2019-08-19 00:00:00 -- -- -- -- -- -- -- -- --
2019-08-18 23:00:00 -- -- -- -- -- -- -- -- --
2019-08-18 22:00:00 16.5 10 Sudoeste 19 Oeste 0 1018.4 1.1 85
2019-08-18 21:00:00 16.9 7 Oeste 17 Sudoeste 0.2 1018.1 1.3 86
2019-08-18 20:00:00 17.5 7 Oeste 19 Oeste 0 1017.6 1.1 83
2019-08-18 19:00:00 17.9 8 Oeste 20 Oeste 0 1017.3 1 81
2019-08-18 18:00:00 17.8 8 Sudoeste 21 Sudoeste 0 1016.8 1.3 84
2019-08-18 17:00:00 17.6 10 Oeste 33 Noroeste 0.4 1016.5 0.8 88
2019-08-18 16:00:00 17.7 16 Noroeste 31 Noroeste 3.4 1016.3 1.3 88
2019-08-18 15:00:00 18 14 Noroeste 23 Noroeste 3 1015.5 1.2 87
2019-08-18 14:00:00 18.4 8 Oeste 28 Noroeste 1 1015.7 2.6 88
2019-08-18 13:00:00 18.7 16 Noroeste 26 Oeste 3.4 1015 2.8 87
2019-08-18 12:00:00 19.4 7 Oeste 37 Noroeste 0.6 1014.3 3.3 86
2019-08-18 11:00:00 20.8 14 Noroeste 31 Oeste 0 1013.1 3 83
2019-08-18 10:00:00 21 18 Noroeste 45 Noroeste 0 1012.2 2.7 80
2019-08-18 09:00:00 21.6 3 Oeste 13 Sudoeste 0 1011 1.9 75
2019-08-18 08:00:00 21.8 0 Calma 11 Sur 0 1010.1 1 72
2019-08-18 07:00:00 21.9 6 Sudoeste 13 Oeste 0 1009.5 0.5 70
2019-08-18 06:00:00 21.9 8 Sudoeste 22 Oeste 0 1009.1 -0.1 70
2019-08-18 05:00:00 22.2 10 Oeste 23 Oeste 0 1009.1 0.2 72
2019-08-18 04:00:00 21.1 5 Oeste 21 Sudoeste 0 1009 -- 77
2019-08-18 03:00:00 20.3 8 Oeste -- -- -- 1009.2 -- 79
2019-08-18 02:00:00 20.1 -- -- -- -- -- 1008.9 -- 79
2019-08-18 01:00:00 -- -- -- -- -- -- -- -- --
2019-08-18 00:00:00 -- -- -- -- -- -- -- -- --
2019-08-17 23:00:00 -- -- -- -- -- -- -- -- --
2019-08-17 22:00:00 -- -- -- -- -- -- -- -- --
2019-08-17 21:00:00 -- -- -- -- -- -- -- -- --
2019-08-17 20:00:00 -- -- -- -- -- -- -- -- --
2019-08-17 19:00:00 -- -- -- -- -- -- -- -- --
2019-08-17 18:00:00 25.7 12 Este 19 Este 0 1011.9 -1.2 59
2019-08-17 17:00:00 26.3 11 Este 22 Este 0 1012.2 -1.3 61
2019-08-17 16:00:00 26.2 12 Este 19 Este 0 1012.6 -1.1 63
2019-08-17 15:00:00 26.6 12 Este 20 Este 0 1013.1 -1.2 65
2019-08-17 14:00:00 26.1 10 Este 17 Este 0 1013.5 -1 65
2019-08-17 13:00:00 25.4 12 Este 18 Este 0 1013.7 -0.5 68
2019-08-17 12:00:00 25.1 6 Este 13 Nordeste 0 1014.3 0.1 70
2019-08-17 11:00:00 23.4 3 Este 8 Este 0 1014.5 0 73
2019-08-17 10:00:00 21.1 4 Nordeste 6 Nordeste 0 1014.2 0.5 80
2019-08-17 09:00:00 18.9 4 Sudoeste 12 Sudoeste 0 1014.2 0.5 83
2019-08-17 08:00:00 17.1 10 Sudoeste 16 Sudoeste 0 1014.5 0.6 84
2019-08-17 07:00:00 17.4 4 Sudoeste 11 Sudoeste 0 1013.7 -0.5 83
2019-08-17 06:00:00 17.7 4 Sudoeste 16 Sudoeste 0 1013.7 -1.5 82
2019-08-17 05:00:00 17.6 2 Sur 17 Sudoeste 0 1013.9 -- 82
2019-08-17 04:00:00 17.7 3 Sudoeste 9 Sur 0 1014.2 -- 81
2019-08-17 03:00:00 18.2 0 Calma -- -- -- 1015.2 -- 81
2019-08-17 02:00:00 -- -- -- -- -- -- -- -- --
2019-08-17 01:00:00 -- -- -- -- -- -- -- -- --
2019-08-17 00:00:00 -- -- -- -- -- -- -- -- --
2019-08-16 23:00:00 -- -- -- -- -- -- -- -- --
2019-08-16 22:00:00 -- -- -- -- -- -- -- -- --
2019-08-16 21:00:00 21.1 11 Noroeste 24 Oeste 0 1016.1 0 71
2019-08-16 20:00:00 22.1 14 Noroeste 24 Noroeste 0 1015.7 -0.4 71
2019-08-16 19:00:00 22 15 Noroeste 30 Noroeste 0 1015.6 -0.4 68
2019-08-16 18:00:00 22.5 19 Noroeste 31 Noroeste 0 1016.1 -0.3 65
2019-08-16 17:00:00 23.3 15 Noroeste 23 Noroeste 0 1016.1 -0.4 61
2019-08-16 16:00:00 23 8 Norte 14 Norte 0 1016 -1 62
2019-08-16 15:00:00 23 6 Norte 11 Norte 0 1016.4 -0.7 63
2019-08-16 14:00:00 23 5 Nordeste 10 Nordeste 0 1016.5 -0.5 65
2019-08-16 13:00:00 22.3 4 Norte 18 Oeste 0 1017 -0.3 67
2019-08-16 12:00:00 21.3 10 Noroeste 17 Noroeste 0 1017.1 -0.3 70
2019-08-16 11:00:00 20.7 6 Norte 15 Noroeste 0 1017 -0.5 74
2019-08-16 10:00:00 19.5 4 Norte 10 Sudoeste 0 1017.3 -0.2 79
2019-08-16 09:00:00 17.2 6 Sudoeste 14 Sudoeste 0 1017.4 -0.2 82
2019-08-16 08:00:00 15.6 10 Sudoeste 15 Sudoeste 0 1017.5 -0.7 85
2019-08-16 07:00:00 15.5 9 Oeste 15 Sudoeste 0 1017.5 -1.1 84
2019-08-16 06:00:00 15.5 12 Sudoeste 15 Oeste 0 1017.6 -1.6 83
2019-08-16 05:00:00 15.8 7 Sudoeste 16 Sudoeste 0 1018.2 -- 83
2019-08-16 04:00:00 15.9 11 Sudoeste 16 Sudoeste 0 1018.6 -- 82
2019-08-16 03:00:00 15.9 12 Sudoeste -- -- -- 1019.2 -- 80
2019-08-16 02:00:00 -- -- -- -- -- -- -- -- --
2019-08-16 01:00:00 -- -- -- -- -- -- -- -- --
2019-08-16 00:00:00 -- -- -- -- -- -- -- -- --
2019-08-15 23:00:00 -- -- -- -- -- -- -- -- --
2019-08-15 22:00:00 19.7 6 Sur 15 Este 0 1021.5 0.2 69
2019-08-15 21:00:00 20.2 12 Este 17 Este 0 1021.1 -0.8 67
2019-08-15 20:00:00 20.7 11 Este 17 Este 0 1020.7 -1.4 65
2019-08-15 19:00:00 21.1 8 Sudeste 13 Sur 0 1021.3 -1.1 64
2019-08-15 18:00:00 21.1 3 Sudeste 9 Sudeste 0 1021.9 -0.5 63
2019-08-15 17:00:00 20.8 0 Calma 9 Norte 0 1022.1 -0.3 64
2019-08-15 16:00:00 20.6 3 Sudeste 13 Nordeste 0 1022.4 -0.1 66
2019-08-15 15:00:00 20.3 4 Norte 12 Nordeste 0 1022.4 0.2 68
2019-08-15 14:00:00 20.3 5 Noroeste 19 Noroeste 0 1022.4 0.3 70
2019-08-15 13:00:00 20.5 9 Noroeste 19 Noroeste 0 1022.5 0.4 73
2019-08-15 12:00:00 20.2 12 Noroeste 21 Noroeste 0 1022.2 0.1 73
2019-08-15 11:00:00 20.7 9 Noroeste 17 Noroeste 0 1022.1 0.4 75
2019-08-15 10:00:00 19 6 Sudoeste 14 Sudoeste 0 1022.1 0.8 80
2019-08-15 09:00:00 18.4 6 Sudoeste 12 Sudoeste 0 1022.1 1 82
2019-08-15 08:00:00 18.2 5 Sudoeste 17 Sudoeste 0 1021.7 0.7 84
2019-08-15 07:00:00 18 6 Oeste 19 Sudoeste 0 1021.3 0.3 86
2019-08-15 06:00:00 18.2 7 Oeste 20 Oeste 0.2 1021.1 0.3 87
2019-08-15 05:00:00 18.4 7 Oeste 22 Oeste 0 1021 0.2 88
2019-08-15 04:00:00 18.7 17 Oeste 31 Oeste 0.4 1021 -- 88
2019-08-15 03:00:00 19.3 11 Oeste -- -- -- 1020.8 0.5 88
2019-08-15 02:00:00 19.7 -- -- -- -- -- 1020.8 0.6 87
2019-08-15 01:00:00 -- -- -- -- -- -- -- -- --
2019-08-15 00:00:00 21.1 15 Noroeste 33 Oeste 0 1020.3 0.8 83
2019-08-14 23:00:00 21.8 15 Noroeste 28 Noroeste 0 1020.2 1 79
2019-08-14 22:00:00 21.9 11 Noroeste 29 Noroeste 0 1019.9 0.8 77
2019-08-14 21:00:00 22.3 14 Noroeste 28 Oeste 0 1019.5 0.1 74
2019-08-14 20:00:00 22.8 14 Noroeste 30 Noroeste 0 1019.2 -0.2 69
2019-08-14 19:00:00 23.5 22 Noroeste 32 Noroeste 0 1019.1 -0.3 65
2019-08-14 18:00:00 23.3 14 Noroeste 23 Noroeste 0 1019.4 -0.1 57
2019-08-14 17:00:00 23.5 9 Noroeste 17 Noroeste 0 1019.4 0 55
2019-08-14 16:00:00 23.2 5 Norte 13 Noroeste 0 1019.4 -0.1 59
2019-08-14 15:00:00 23.5 8 Norte 15 Noroeste 0 1019.5 0.2 57
2019-08-14 14:00:00 22.8 9 Noroeste 19 Noroeste 0 1019.4 0.5 60
2019-08-14 13:00:00 22.4 13 Noroeste 23 Noroeste 0 1019.5 0.7 58
2019-08-14 12:00:00 23.4 4 Norte 10 Norte 0 1019.3 0.7 63
2019-08-14 11:00:00 22.4 3 Nordeste 6 Nordeste 0 1018.9 0.1 62
2019-08-14 10:00:00 19.6 3 Sudeste 10 Nordeste 0 1018.8 0.3 70
2019-08-14 09:00:00 17.6 3 Sur 13 Sudoeste 0 1018.6 0.1 73
2019-08-14 08:00:00 15.8 9 Oeste 15 Sudoeste 0 1018.8 0.6 75
2019-08-14 07:00:00 15.7 10 Sudoeste 23 Sudoeste 0 1018.5 0 75
2019-08-14 06:00:00 15.5 10 Sudoeste 18 Sudoeste 0 1018.5 0 77
2019-08-14 05:00:00 16.2 8 Sudoeste 14 Sudoeste 0 1018.2 -1.6 75
2019-08-14 04:00:00 15.8 10 Sudoeste 19 Sudoeste 0 1018.5 -- 76
2019-08-14 03:00:00 16.2 6 Sudoeste -- -- -- 1018.5 -- 75
2019-08-14 02:00:00 16.1 -- -- -- -- -- 1019.8 -- 75
2019-08-14 01:00:00 -- -- -- -- -- -- -- -- --
2019-08-14 00:00:00 -- -- -- -- -- -- -- -- --
2019-08-13 23:00:00 -- -- -- -- -- -- -- -- --
2019-08-13 22:00:00 -- -- -- -- -- -- -- -- --
2019-08-13 21:00:00 -- -- -- -- -- -- -- -- --
2019-08-13 20:00:00 -- -- -- -- -- -- -- -- --
2019-08-13 19:00:00 -- -- -- -- -- -- -- -- --
2019-08-13 18:00:00 -- -- -- -- -- -- -- -- --
2019-08-13 17:00:00 -- -- -- -- -- -- -- -- --
2019-08-13 16:00:00 22.8 14 Este -- -- -- 1021.5 -0.4 55
2019-08-13 15:00:00 22.6 14 Este 23 Este 0 1021.9 -0.2 56
2019-08-13 14:00:00 22.2 17 Este 24 Este 0 1021.8 -0.4 57
2019-08-13 13:00:00 21.6 18 Este 31 Este 0 1021.9 -0.6 58
2019-08-13 12:00:00 21.2 15 Este 24 Este 0 1022.1 -0.2 61
2019-08-13 11:00:00 20.3 7 Nordeste 12 Nordeste 0 1022.2 0.1 64
2019-08-13 10:00:00 18.5 0 Calma 7 Sudoeste 0 1022.5 0.6 72
2019-08-13 09:00:00 15.7 4 Oeste 13 Sudoeste 0 1022.3 0.5 80
2019-08-13 08:00:00 14.4 10 Sudoeste 17 Sudoeste 0 1022.1 0.1 81
2019-08-13 07:00:00 14.4 10 Sudoeste 14 Sudoeste 0 1021.9 -0.4 82
2019-08-13 06:00:00 15.1 8 Sudoeste 12 Sudoeste 0 1021.8 -1.2 80
2019-08-13 05:00:00 16 2 Sudoeste 13 Oeste 0 1022 -- 78
2019-08-13 04:00:00 16.1 8 Sudoeste 13 Sudoeste 0 1022.3 -- 78
2019-08-13 03:00:00 16.8 6 Sudoeste -- -- -- 1023 -- 76
2019-08-13 02:00:00 -- -- -- -- -- -- -- -- --
2019-08-13 01:00:00 -- -- -- -- -- -- -- -- --
2019-08-13 00:00:00 -- -- -- -- -- -- -- -- --
2019-08-12 23:00:00 18 10 Sudoeste 15 Oeste 0 1024.2 1.6 68
2019-08-12 22:00:00 18.6 7 Sudoeste 14 Noroeste 0 1023.8 1 64
2019-08-12 21:00:00 19.2 7 Noroeste 14 Norte 0 1023.1 0.3 57
2019-08-12 20:00:00 19.5 5 Noroeste 19 Noroeste 0 1022.6 -0.2 57
2019-08-12 19:00:00 20.4 13 Noroeste 26 Noroeste 0 1022.8 -0.2 52
2019-08-12 18:00:00 20.8 18 Noroeste 30 Noroeste 0 1022.8 -0.6 51
2019-08-12 17:00:00 21 20 Noroeste 35 Noroeste 0 1022.8 -0.6 53
2019-08-12 16:00:00 20.8 24 Noroeste 36 Noroeste 0 1023 -0.2 54
2019-08-12 15:00:00 20.1 16 Noroeste 35 Noroeste 0 1023.4 0.7 58
2019-08-12 14:00:00 19.1 8 Oeste 37 Oeste 0 1023.4 1 65
2019-08-12 13:00:00 19.2 14 Noroeste 36 Oeste 0 1023.2 1.2 61
2019-08-12 12:00:00 19.5 13 Oeste 31 Oeste 0 1022.7 1.5 57
2019-08-12 11:00:00 17.9 6 Noroeste 38 Noroeste 0 1022.4 1.8 70
2019-08-12 10:00:00 18 13 Oeste 27 Oeste 0 1022 1.8 60
2019-08-12 09:00:00 17.3 12 Oeste -- -- -- 1021.2 1.1 63
2019-08-12 08:00:00 16.1 9 Oeste 20 Oeste 0 1020.6 0.6 69
2019-08-12 07:00:00 15.7 9 Oeste 16 Noroeste 0 1020.2 0.1 71
2019-08-12 06:00:00 15.1 5 Oeste 17 Oeste 0 1020.1 -0.2 75
2019-08-12 05:00:00 15.2 7 Oeste 15 Oeste 0 1020 -- 76
2019-08-12 04:00:00 14.9 5 Oeste 14 Oeste 0 1020.1 -- 77
2019-08-12 03:00:00 14.9 6 Oeste -- -- -- 1020.3 -0.1 78
2019-08-12 02:00:00 -- -- -- -- -- -- -- -- --
2019-08-12 01:00:00 -- -- -- -- -- -- -- -- --
2019-08-12 00:00:00 15 6 Sudoeste 10 Sudoeste 0 1020.4 -- 79
2019-08-11 23:00:00 15.8 5 Oeste -- -- -- 1020.6 -- 80
2019-08-11 22:00:00 -- -- -- -- -- -- -- -- --
2019-08-11 21:00:00 -- -- -- -- -- -- -- -- --
2019-08-11 20:00:00 -- -- -- -- -- -- -- -- --
2019-08-11 19:00:00 -- -- -- -- -- -- -- -- --
2019-08-11 18:00:00 18.5 4 Sudeste 15 Este 1 1018.7 0.2 81
2019-08-11 17:00:00 19.1 12 Este 20 Este 0 1018.5 0.2 79
2019-08-11 16:00:00 18.8 12 Este 19 Este 0 1018.6 0.2 78
2019-08-11 15:00:00 18.6 12 Sudoeste 26 Noroeste 3.6 1018.5 0.3 81
2019-08-11 14:00:00 19.3 17 Noroeste 38 Noroeste 1.6 1018.3 0.4 72
2019-08-11 13:00:00 20.5 14 Noroeste 29 Noroeste 0 1018.4 0.8 65
2019-08-11 12:00:00 19.9 10 Noroeste 19 Noroeste 0 1018.2 0.8 66
2019-08-11 11:00:00 19.2 7 Oeste 17 Oeste 0 1017.9 0.9 73
2019-08-11 10:00:00 18.9 5 Oeste 12 Oeste 0 1017.6 0.7 78
2019-08-11 09:00:00 17.8 4 Sudoeste 12 Sudoeste 0 1017.4 0.5 82
2019-08-11 08:00:00 17.3 7 Sudoeste 25 Oeste 0.4 1017 -0.7 83
2019-08-11 07:00:00 17.2 7 Sudoeste 14 Oeste 0 1016.9 -0.9 83
2019-08-11 06:00:00 17.5 6 Sudoeste 10 Sudoeste 1 1016.9 -0.9 81
2019-08-11 05:00:00 18.3 5 Sudoeste 11 Sudoeste 0 1017.7 -- 74
2019-08-11 04:00:00 18.4 6 Oeste 13 Oeste 0 1017.8 -- 73
2019-08-11 03:00:00 18.4 5 Sudoeste -- -- -- 1017.8 -- 74
2019-08-11 02:00:00 -- -- -- -- -- -- -- -- --
2019-08-11 01:00:00 -- -- -- -- -- -- -- -- --
2019-08-11 00:00:00 -- -- -- -- -- -- -- -- --
2019-08-10 23:00:00 -- -- -- -- -- -- -- -- --
2019-08-10 22:00:00 -- -- -- -- -- -- -- -- --
2019-08-10 21:00:00 -- -- -- -- -- -- -- -- --
2019-08-10 20:00:00 -- -- -- -- -- -- -- -- --
2019-08-10 19:00:00 -- -- -- -- -- -- -- -- --
2019-08-10 18:00:00 -- -- -- -- -- -- -- -- --
2019-08-10 17:00:00 -- -- -- -- -- -- -- -- --
2019-08-10 16:00:00 -- -- -- -- -- -- -- -- --
2019-08-10 15:00:00 21.7 10 Noroeste 17 Noroeste 0 1019.7 -0.1 61
2019-08-10 14:00:00 22.3 5 Noroeste 13 Noroeste 0 1019.6 0.1 61
2019-08-10 13:00:00 22 9 Noroeste 15 Noroeste 0 1019.8 0.7 61
2019-08-10 12:00:00 22.1 6 Noroeste 12 Norte 0 1019.8 1.2 63
2019-08-10 11:00:00 21.8 4 Nordeste 8 Este 0 1019.5 1.6 65
2019-08-10 10:00:00 20.7 3 Sudeste 6 Sudeste 0 1019.1 1.7 71
2019-08-10 09:00:00 20.1 2 Sur 5 Sur 0 1018.6 1.9 72
2019-08-10 08:00:00 19.5 3 Sur 9 Sudoeste 0 1017.9 1.3 72
2019-08-10 07:00:00 19.5 7 Oeste -- -- -- 1017.4 1.3 76
2019-08-10 06:00:00 19.8 4 Sudoeste 12 Sudoeste 0.8 1016.7 1 80
2019-08-10 05:00:00 20.5 5 Oeste 14 Noroeste 0 1016.6 -- 78
2019-08-10 04:00:00 20.5 4 Sur 12 Sur 0 1016.1 -- 77
2019-08-10 03:00:00 20.6 6 Sur -- -- -- 1015.7 -- 78
2019-08-10 02:00:00 -- -- -- -- -- -- -- -- --
2019-08-10 01:00:00 -- -- -- -- -- -- -- -- --
2019-08-10 00:00:00 -- -- -- -- -- -- -- -- --
2019-08-09 23:00:00 -- -- -- -- -- -- -- -- --
2019-08-09 22:00:00 -- -- -- -- -- -- -- -- --
2019-08-09 21:00:00 -- -- -- -- -- -- -- -- --
2019-08-09 20:00:00 -- -- -- -- -- -- -- -- --
2019-08-09 19:00:00 -- -- -- -- -- -- -- -- --
2019-08-09 18:00:00 -- -- -- -- -- -- -- -- --
2019-08-09 17:00:00 -- -- -- -- -- -- -- -- --
2019-08-09 16:00:00 -- -- -- -- -- -- -- -- --
2019-08-09 15:00:00 -- -- -- -- -- -- -- -- --
2019-08-09 14:00:00 22.5 6 Sudeste 18 Sudeste 0 1009.9 1.6 80
2019-08-09 13:00:00 21.8 9 Sudeste 21 Sudeste 0 1009.4 1.4 83
2019-08-09 12:00:00 21.6 12 Sudeste 29 Este 0 1009.2 1.8 86
2019-08-09 11:00:00 21.7 21 Este 30 Este 0 1008.3 1.1 88
2019-08-09 10:00:00 21.4 14 Este 26 Este 0.4 1008 1.6 88
2019-08-09 09:00:00 21.8 12 Sudeste 20 Sudeste 0.4 1007.4 1 87
2019-08-09 08:00:00 22.1 4 Sudeste 9 Sudeste 0 1007.2 0.9 85
2019-08-09 07:00:00 22.3 4 Sudeste 9 Sudoeste 0 1006.4 2.4 83
2019-08-09 06:00:00 22.3 4 Noroeste 25 Oeste 0 1006.4 1.9 82
2019-08-09 05:00:00 22.6 12 Noroeste 49 Oeste 0 1006.3 -- 82
2019-08-09 04:00:00 23.7 4 Oeste 14 Sudoeste 0 1004 -- 75
2019-08-09 03:00:00 23.7 7 Sudoeste -- -- -- 1004.5 -- 78
2019-08-09 02:00:00 -- -- -- -- -- -- -- -- --
2019-08-09 01:00:00 -- -- -- -- -- -- -- -- --
2019-08-09 00:00:00 -- -- -- -- -- -- -- -- --
2019-08-08 23:00:00 -- -- -- -- -- -- -- -- --
2019-08-08 22:00:00 -- -- -- -- -- -- -- -- --
2019-08-08 21:00:00 -- -- -- -- -- -- -- -- --
2019-08-08 20:00:00 -- -- -- -- -- -- -- -- --
2019-08-08 19:00:00 -- -- -- -- -- -- -- -- --
2019-08-08 18:00:00 -- -- -- -- -- -- -- -- --
2019-08-08 17:00:00 -- -- -- -- -- -- -- -- --
2019-08-08 16:00:00 -- -- -- -- -- -- -- -- --
2019-08-08 15:00:00 25.7 3 Este 10 Este 0 1007.1 -0.7 69
2019-08-08 14:00:00 26.3 4 Este 15 Este 0 1007.4 -0.3 71
2019-08-08 13:00:00 25.5 8 Este 12 Este 0 1007.6 -0.2 71
2019-08-08 12:00:00 24.7 3 Nordeste 7 Este 0 1007.8 0.1 73
2019-08-08 11:00:00 23.9 5 Este 8 Este 0 1007.7 -0.1 79
2019-08-08 10:00:00 22.5 3 Nordeste 9 Noroeste 0 1007.8 0 82
2019-08-08 09:00:00 20.6 3 Noroeste 13 Sudoeste 0 1007.7 -0.4 85
2019-08-08 08:00:00 19.7 6 Oeste 13 Sudoeste 0 1007.8 -0.9 85
2019-08-08 07:00:00 20 3 Sudoeste 10 Sudoeste 0 1007.8 -1.2 85
2019-08-08 06:00:00 20.5 2 Sur 8 Sudoeste 0 1008.1 -0.9 85
2019-08-08 05:00:00 20.5 3 Oeste 12 Sudoeste 0 1008.7 -- 85
2019-08-08 04:00:00 20.1 7 Oeste 13 Sudoeste 0 1009 -- 85
2019-08-08 03:00:00 20 6 Sudoeste -- -- -- 1009 -- 84
2019-08-08 02:00:00 -- -- -- -- -- -- -- -- --
2019-08-08 01:00:00 -- -- -- -- -- -- -- -- --
2019-08-08 00:00:00 -- -- -- -- -- -- -- -- --
2019-08-07 23:00:00 -- -- -- -- -- -- -- -- --
2019-08-07 22:00:00 -- -- -- -- -- -- -- -- --
2019-08-07 21:00:00 -- -- -- -- -- -- -- -- --
2019-08-07 20:00:00 -- -- -- -- -- -- -- -- --
2019-08-07 19:00:00 -- -- -- -- -- -- -- -- --
2019-08-07 18:00:00 -- -- -- -- -- -- -- -- --
2019-08-07 17:00:00 -- -- -- -- -- -- -- -- --
2019-08-07 16:00:00 25.3 14 Este 22 Este 0 1010.3 -0.9 72
2019-08-07 15:00:00 25.1 12 Este 20 Este 0 1010.5 -1.1 74
2019-08-07 14:00:00 25 11 Este 17 Este 0 1010.7 -0.8 72
2019-08-07 13:00:00 25 10 Este 13 Este 0 1011.2 -0.5 74
2019-08-07 12:00:00 23.4 9 Nordeste 13 Este 0 1011.6 0.1 76
2019-08-07 11:00:00 23 6 Nordeste 8 Nordeste 0 1011.5 0.2 78
2019-08-07 10:00:00 22.2 4 Norte 8 Oeste -- 1011.7 0.5 82
2019-08-07 09:00:00 20.3 5 Sudoeste 12 Sudoeste -- 1011.5 0.8 85
2019-08-07 08:00:00 19 6 Sudoeste 11 Sudoeste -- 1011.3 0.7 85
2019-08-07 07:00:00 18.8 6 Sudoeste 10 Sudoeste -- 1011.2 0.9 85
2019-08-07 06:00:00 19.1 4 Sudoeste 10 Sudoeste -- 1010.7 0.1 85
2019-08-07 05:00:00 19 6 Sudoeste 11 Sudoeste -- 1010.6 -0.3 85
2019-08-07 04:00:00 19 7 Sudoeste 13 Oeste -- 1010.3 -- 86
2019-08-07 03:00:00 18.9 8 Sudoeste -- -- -- 1010.6 -- 87
2019-08-07 02:00:00 19.1 5 Oeste -- -- -- 1010.9 -- 86
2019-08-07 01:00:00 -- -- -- -- -- -- -- -- --
2019-08-07 00:00:00 -- -- -- -- -- -- -- -- --
2019-08-06 23:00:00 -- -- -- -- -- -- -- -- --
2019-08-06 22:00:00 -- -- -- -- -- -- -- -- --
2019-08-06 21:00:00 -- -- -- -- -- -- -- -- --
2019-08-06 20:00:00 -- -- -- -- -- -- -- -- --
2019-08-06 19:00:00 -- -- -- -- -- -- -- -- --
2019-08-06 18:00:00 -- -- -- -- -- -- -- -- --
2019-08-06 17:00:00 22.8 7 Noroeste 14 Norte -- 1012.2 -0.4 74
2019-08-06 16:00:00 23 10 Noroeste 19 Noroeste -- 1012.4 -0.2 71
2019-08-06 15:00:00 23.9 8 Noroeste 17 Norte -- 1012.5 -0.1 70
2019-08-06 14:00:00 24.4 5 Norte 10 Noroeste -- 1012.6 -0.2 69
2019-08-06 13:00:00 23.7 5 Nordeste 9 Nordeste -- 1012.6 -0.1 72
2019-08-06 12:00:00 23.3 4 Nordeste 8 Nordeste -- 1012.6 0.1 74
2019-08-06 11:00:00 22.4 4 Norte 9 Norte -- 1012.8 0.4 73
2019-08-06 10:00:00 21.3 3 Oeste 8 Noroeste 0 1012.7 0.3 77
2019-08-06 09:00:00 19.4 4 Oeste 14 Sudoeste 0 1012.5 0.1 81
2019-08-06 08:00:00 18.3 9 Oeste 14 Sudoeste 0 1012.4 -0.8 82
2019-08-06 07:00:00 18 9 Sudoeste 15 Sudoeste 0 1012.4 -0.9 82
2019-08-06 06:00:00 18.2 8 Sudoeste 15 Sudoeste 0 1012.4 -1.2 82
2019-08-06 05:00:00 18.1 12 Sudoeste 17 Sudoeste 0 1013.2 -1 82
2019-08-06 04:00:00 18.7 9 Sudoeste 15 Sudoeste 0 1013.3 -0.8 83
2019-08-06 03:00:00 19.3 7 Oeste -- -- -- 1013.6 -1.1 81
2019-08-06 02:00:00 19.7 7 Sudoeste -- -- -- 1014.2 -0.8 80
2019-08-06 01:00:00 20.3 5 Sudoeste 10 Oeste -- 1014.1 -- 77
2019-08-06 00:00:00 20.8 5 Sur 10 Sudeste -- 1014.7 -- 77
2019-08-05 23:00:00 21.2 0 Calma -- -- -- 1015 -- 76
2019-08-05 22:00:00 -- -- -- -- -- -- -- -- --
2019-08-05 21:00:00 -- -- -- -- -- -- -- -- --
2019-08-05 20:00:00 -- -- -- -- -- -- -- -- --
2019-08-05 19:00:00 -- -- -- -- -- -- -- -- --
2019-08-05 18:00:00 -- -- -- -- -- -- -- -- --
2019-08-05 17:00:00 -- -- -- -- -- -- -- -- --
2019-08-05 16:00:00 -- -- -- -- -- -- -- -- --
2019-08-05 15:00:00 -- -- -- -- -- -- -- -- --
2019-08-05 14:00:00 -- -- -- -- -- -- -- -- --
2019-08-05 13:00:00 -- -- -- -- -- -- -- -- --
2019-08-05 12:00:00 23.9 6 Nordeste 10 Nordeste -- 1015.4 -0.4 74
2019-08-05 11:00:00 22.4 -- -- -- -- -- 1015.4 -0.2 79
2019-08-05 10:00:00 21.3 3 Sudoeste 9 Sudoeste -- 1015.7 -- 80
2019-08-05 09:00:00 20.8 4 Sudoeste 8 Sudoeste -- 1015.8 -- 81
2019-08-05 08:00:00 20.6 0 Calma -- -- -- 1015.6 0.1 81
2019-08-05 07:00:00 -- -- -- -- -- -- -- -- --
2019-08-05 06:00:00 -- -- -- -- -- -- -- -- --
2019-08-05 05:00:00 20.4 4 Sudoeste 10 Oeste -- 1015.5 -- 80
2019-08-05 04:00:00 20.6 5 Sudoeste 10 Oeste -- 1015.6 -- 79
2019-08-05 03:00:00 20.7 0 Calma -- -- -- 1015.7 -- 78
2019-08-05 02:00:00 -- -- -- -- -- -- -- -- --
2019-08-05 01:00:00 -- -- -- -- -- -- -- -- --
2019-08-05 00:00:00 -- -- -- -- -- -- -- -- --
2019-08-04 23:00:00 -- -- -- -- -- -- -- -- --
2019-08-04 22:00:00 -- -- -- -- -- -- -- -- --
2019-08-04 21:00:00 -- -- -- -- -- -- -- -- --
2019-08-04 20:00:00 -- -- -- -- -- -- -- -- --
2019-08-04 19:00:00 -- -- -- -- -- -- -- -- --
2019-08-04 18:00:00 22.6 3 Norte 9 Nordeste -- 1015.5 0 69
2019-08-04 17:00:00 23.4 5 Este 7 Este -- 1015.2 -0.4 69
2019-08-04 16:00:00 23 3 Norte -- -- -- 1015.4 -0.1 71
2019-08-04 15:00:00 22.8 -- -- -- -- -- 1015.5 0.1 71
2019-08-04 14:00:00 23.2 3 Nordeste 6 Nordeste -- 1015.6 0.3 73
2019-08-04 13:00:00 22.5 3 Noroeste 6 Norte -- 1015.5 0 76
2019-08-04 12:00:00 22.4 3 Norte 7 Norte -- 1015.4 -0.1 77
2019-08-04 11:00:00 21.9 3 Nordeste 5 Nordeste -- 1015.3 0 79
2019-08-04 10:00:00 21.4 0 Calma -- -- -- 1015.5 0.6 82
2019-08-04 09:00:00 20.2 5 Sur 10 Sudoeste -- 1015.5 0.8 83
2019-08-04 08:00:00 20.1 6 Sudoeste 11 Sudoeste -- 1015.3 0.4 83
2019-08-04 07:00:00 20.7 2 Oeste 9 Noroeste -- 1014.9 0.1 83
2019-08-04 06:00:00 20.7 3 Oeste 8 Oeste -- 1014.7 -0.2 82
2019-08-04 05:00:00 20.7 3 Oeste -- -- -- 1014.9 -0.1 82
2019-08-04 04:00:00 20.9 4 Sudoeste 7 Sudoeste -- 1014.8 -- 81
2019-08-04 03:00:00 20.9 5 Sudoeste -- -- -- 1014.9 -- 81
2019-08-04 02:00:00 21.1 -- -- -- -- -- 1015 -- 80
2019-08-04 01:00:00 -- -- -- -- -- -- -- -- --
2019-08-04 00:00:00 -- -- -- -- -- -- -- -- --
2019-08-03 23:00:00 -- -- -- -- -- -- -- -- --
2019-08-03 22:00:00 -- -- -- -- -- -- -- -- --
2019-08-03 21:00:00 -- -- -- -- -- -- -- -- --
2019-08-03 20:00:00 -- -- -- -- -- -- -- -- --
2019-08-03 19:00:00 -- -- -- -- -- -- -- -- --
2019-08-03 18:00:00 -- -- -- -- -- -- -- -- --
2019-08-03 17:00:00 -- -- -- -- -- -- -- -- --
2019-08-03 16:00:00 -- -- -- -- -- -- -- -- --
2019-08-03 15:00:00 23.4 -- -- -- -- -- 1014.6 0.1 72
2019-08-03 14:00:00 23.4 3 Nordeste 6 Nordeste -- 1014.8 0.4 74
2019-08-03 13:00:00 22.5 4 Este 8 Nordeste -- 1014.6 0.1 74
2019-08-03 12:00:00 22.4 4 Nordeste 8 Nordeste -- 1014.5 -0.1 76
2019-08-03 11:00:00 22.2 5 Nordeste 9 Nordeste -- 1014.4 -0.1 77
2019-08-03 10:00:00 20.9 6 Norte 9 Norte -- 1014.5 0.4 82
2019-08-03 09:00:00 19.5 3 Noroeste 12 Sudoeste -- 1014.6 0.4 85
2019-08-03 08:00:00 18.2 6 Sudoeste 12 Sudoeste -- 1014.5 0 86
2019-08-03 07:00:00 18.6 8 Sudoeste 10 Sudoeste -- 1014.1 -1 85
2019-08-03 06:00:00 19.3 6 Oeste 9 Sudoeste -- 1014.2 -1.2 83
2019-08-03 05:00:00 19.7 2 Sur 6 Sudoeste -- 1014.5 -- 83
2019-08-03 04:00:00 19.7 2 Sur 10 Sudeste -- 1015.1 -- 82
2019-08-03 03:00:00 19.9 8 Sudeste -- -- -- 1015.4 -- 82
2019-08-03 02:00:00 -- -- -- -- -- -- -- -- --
2019-08-03 01:00:00 -- -- -- -- -- -- -- -- --
2019-08-03 00:00:00 -- -- -- -- -- -- -- -- --
2019-08-02 23:00:00 -- -- -- -- -- -- -- -- --
2019-08-02 22:00:00 -- -- -- -- -- -- -- -- --
2019-08-02 21:00:00 -- -- -- -- -- -- -- -- --
2019-08-02 20:00:00 -- -- -- -- -- -- -- -- --
2019-08-02 19:00:00 -- -- -- -- -- -- -- -- --
2019-08-02 18:00:00 -- -- -- -- -- -- -- -- --
2019-08-02 17:00:00 -- -- -- -- -- -- -- -- --
2019-08-02 16:00:00 -- -- -- -- -- -- -- -- --
2019-08-02 15:00:00 -- -- -- -- -- -- -- -- --
2019-08-02 14:00:00 -- -- -- -- -- -- -- -- --
2019-08-02 13:00:00 -- -- -- -- -- -- -- -- --
2019-08-02 12:00:00 -- -- -- -- -- -- -- -- --
2019-08-02 11:00:00 -- -- -- -- -- -- -- -- --
2019-08-02 10:00:00 -- -- -- -- -- -- -- -- --
2019-08-02 09:00:00 -- -- -- -- -- -- -- -- --
2019-08-02 08:00:00 -- -- -- -- -- -- -- -- --
2019-08-02 07:00:00 -- -- -- -- -- -- -- -- --
2019-08-02 06:00:00 -- -- -- -- -- -- -- -- --
2019-08-02 05:00:00 -- -- -- -- -- -- -- -- --
2019-08-02 04:00:00 -- -- -- -- -- -- -- -- --
2019-08-02 03:00:00 -- -- -- -- -- -- -- -- --
2019-08-02 02:00:00 -- -- -- -- -- -- -- -- --
2019-08-02 01:00:00 -- -- -- -- -- -- -- -- --
2019-08-02 00:00:00 -- -- -- -- -- -- -- -- --
2019-08-01 23:00:00 -- -- -- -- -- -- -- -- --
2019-08-01 22:00:00 -- -- -- -- -- -- -- -- --
2019-08-01 21:00:00 -- -- -- -- -- -- -- -- --
2019-08-01 20:00:00 -- -- -- -- -- -- -- -- --
2019-08-01 19:00:00 -- -- -- -- -- -- -- -- --
2019-08-01 18:00:00 -- -- -- -- -- -- -- -- --
2019-08-01 17:00:00 -- -- -- -- -- -- -- -- --
2019-08-01 16:00:00 -- -- -- -- -- -- -- -- --
2019-08-01 15:00:00 -- -- -- -- -- -- -- -- --
2019-08-01 14:00:00 -- -- -- -- -- -- -- -- --
2019-08-01 13:00:00 -- -- -- -- -- -- -- -- --
2019-08-01 12:00:00 -- -- -- -- -- -- -- -- --
2019-08-01 11:00:00 -- -- -- -- -- -- -- -- --
2019-08-01 10:00:00 -- -- -- -- -- -- -- -- --
2019-08-01 09:00:00 -- -- -- -- -- -- -- -- --
2019-08-01 08:00:00 -- -- -- -- -- -- -- -- --
2019-08-01 07:00:00 -- -- -- -- -- -- -- -- --
2019-08-01 06:00:00 -- -- -- -- -- -- -- -- --
2019-08-01 05:00:00 -- -- -- -- -- -- -- -- --
2019-08-01 04:00:00 -- -- -- -- -- -- -- -- --
2019-08-01 03:00:00 -- -- -- -- -- -- -- -- --
2019-08-01 02:00:00 -- -- -- -- -- -- -- -- --
2019-08-01 01:00:00 -- -- -- -- -- -- -- -- --
2019-08-01 00:00:00 -- -- -- -- -- -- -- -- --
2019-07-31 23:00:00 -- -- -- -- -- -- -- -- --
2019-07-31 22:00:00 -- -- -- -- -- -- -- -- --
2019-07-31 21:00:00 -- -- -- -- -- -- -- -- --
2019-07-31 20:00:00 -- -- -- -- -- -- -- -- --
2019-07-31 19:00:00 -- -- -- -- -- -- -- -- --
2019-07-31 18:00:00 -- -- -- -- -- -- -- -- --
2019-07-31 17:00:00 -- -- -- -- -- -- -- -- --
2019-07-31 16:00:00 -- -- -- -- -- -- -- -- --
2019-07-31 15:00:00 -- -- -- -- -- -- -- -- --
2019-07-31 14:00:00 -- -- -- -- -- -- -- -- --
2019-07-31 13:00:00 -- -- -- -- -- -- -- -- --
2019-07-31 12:00:00 -- -- -- -- -- -- -- -- --
2019-07-31 11:00:00 -- -- -- -- -- -- -- -- --
2019-07-31 10:00:00 -- -- -- -- -- -- -- -- --
2019-07-31 09:00:00 -- -- -- -- -- -- -- -- --
2019-07-31 08:00:00 -- -- -- -- -- -- -- -- --
2019-07-31 07:00:00 -- -- -- -- -- -- -- -- --
2019-07-31 06:00:00 -- -- -- -- -- -- -- -- --
2019-07-31 05:00:00 -- -- -- -- -- -- -- -- --
2019-07-31 04:00:00 -- -- -- -- -- -- -- -- --
2019-07-31 03:00:00 -- -- -- -- -- -- -- -- --
2019-07-31 02:00:00 -- -- -- -- -- -- -- -- --
2019-07-31 01:00:00 -- -- -- -- -- -- -- -- --
2019-07-31 00:00:00 -- -- -- -- -- -- -- -- --
2019-07-30 23:00:00 -- -- -- -- -- -- -- -- --
2019-07-30 22:00:00 -- -- -- -- -- -- -- -- --
2019-07-30 21:00:00 -- -- -- -- -- -- -- -- --
2019-07-30 20:00:00 -- -- -- -- -- -- -- -- --
2019-07-30 19:00:00 -- -- -- -- -- -- -- -- --
2019-07-30 18:00:00 -- -- -- -- -- -- -- -- --
2019-07-30 17:00:00 -- -- -- -- -- -- -- -- --
2019-07-30 16:00:00 -- -- -- -- -- -- -- -- --
2019-07-30 15:00:00 -- -- -- -- -- -- -- -- --
2019-07-30 14:00:00 -- -- -- -- -- -- -- -- --
2019-07-30 13:00:00 -- -- -- -- -- -- -- -- --
2019-07-30 12:00:00 -- -- -- -- -- -- -- -- --
2019-07-30 11:00:00 -- -- -- -- -- -- -- -- --
2019-07-30 10:00:00 -- -- -- -- -- -- -- -- --
2019-07-30 09:00:00 -- -- -- -- -- -- -- -- --
2019-07-30 08:00:00 -- -- -- -- -- -- -- -- --
2019-07-30 07:00:00 -- -- -- -- -- -- -- -- --
2019-07-30 06:00:00 -- -- -- -- -- -- -- -- --
2019-07-30 05:00:00 -- -- -- -- -- -- -- -- --
2019-07-30 04:00:00 -- -- -- -- -- -- -- -- --
2019-07-30 03:00:00 -- -- -- -- -- -- -- -- --
2019-07-30 02:00:00 17.6 5 Noroeste -- -- -- 1016.4 -- 65
2019-07-30 01:00:00 -- -- -- -- -- -- -- -- --
2019-07-30 00:00:00 -- -- -- -- -- -- -- -- --
2019-07-29 23:00:00 -- -- -- -- -- -- -- -- --
2019-07-29 22:00:00 -- -- -- -- -- -- -- -- --
2019-07-29 21:00:00 -- -- -- -- -- -- -- -- --
2019-07-29 20:00:00 -- -- -- -- -- -- -- -- --
2019-07-29 19:00:00 -- -- -- -- -- -- -- -- --
2019-07-29 18:00:00 -- -- -- -- -- -- -- -- --
2019-07-29 17:00:00 -- -- -- -- -- -- -- -- --
2019-07-29 16:00:00 -- -- -- -- -- -- -- -- --
2019-07-29 15:00:00 -- -- -- -- -- -- -- -- --
2019-07-29 14:00:00 -- -- -- -- -- -- -- -- --
2019-07-29 13:00:00 -- -- -- -- -- -- -- -- --
2019-07-29 12:00:00 -- -- -- -- -- -- -- -- --
2019-07-29 11:00:00 -- -- -- -- -- -- -- -- --
2019-07-29 10:00:00 -- -- -- -- -- -- -- -- --
2019-07-29 09:00:00 -- -- -- -- -- -- -- -- --
2019-07-29 08:00:00 -- -- -- -- -- -- -- -- --
2019-07-29 07:00:00 -- -- -- -- -- -- -- -- --
2019-07-29 06:00:00 -- -- -- -- -- -- -- -- --
2019-07-29 05:00:00 -- -- -- -- -- -- -- -- --
2019-07-29 04:00:00 -- -- -- -- -- -- -- -- --
2019-07-29 03:00:00 -- -- -- -- -- -- -- -- --
2019-07-29 02:00:00 -- -- -- -- -- -- -- -- --
2019-07-29 01:00:00 -- -- -- -- -- -- -- -- --
2019-07-29 00:00:00 -- -- -- -- -- -- -- -- --
2019-07-28 23:00:00 -- -- -- -- -- -- -- -- --
2019-07-28 22:00:00 -- -- -- -- -- -- -- -- --
2019-07-28 21:00:00 -- -- -- -- -- -- -- -- --
2019-07-28 20:00:00 -- -- -- -- -- -- -- -- --
2019-07-28 19:00:00 -- -- -- -- -- -- -- -- --
2019-07-28 18:00:00 -- -- -- -- -- -- -- -- --
2019-07-28 17:00:00 -- -- -- -- -- -- -- -- --
2019-07-28 16:00:00 -- -- -- -- -- -- -- -- --
2019-07-28 15:00:00 -- -- -- -- -- -- -- -- --
2019-07-28 14:00:00 -- -- -- -- -- -- -- -- --
2019-07-28 13:00:00 -- -- -- -- -- -- -- -- --
2019-07-28 12:00:00 -- -- -- -- -- -- -- -- --
2019-07-28 11:00:00 -- -- -- -- -- -- -- -- --
2019-07-28 10:00:00 -- -- -- -- -- -- -- -- --
2019-07-28 09:00:00 -- -- -- -- -- -- -- -- --
2019-07-28 08:00:00 -- -- -- -- -- -- -- -- --
2019-07-28 07:00:00 -- -- -- -- -- -- -- -- --
2019-07-28 06:00:00 -- -- -- -- -- -- -- -- --
2019-07-28 05:00:00 -- -- -- -- -- -- -- -- --
2019-07-28 04:00:00 -- -- -- -- -- -- -- -- --
2019-07-28 03:00:00 16.1 5 Oeste -- -- -- 1013.7 -- 78
2019-07-28 02:00:00 -- -- -- -- -- -- -- -- --
2019-07-28 01:00:00 -- -- -- -- -- -- -- -- --
2019-07-28 00:00:00 -- -- -- -- -- -- -- -- --
2019-07-27 23:00:00 -- -- -- -- -- -- -- -- --
2019-07-26 12:00:00 -- -- -- -- -- -- -- -- --
2019-07-26 11:00:00 -- -- -- -- -- -- -- -- --
2019-07-26 10:00:00 -- -- -- -- -- -- -- -- --
2019-07-26 09:00:00 -- -- -- -- -- -- -- -- --
2019-07-26 08:00:00 -- -- -- -- -- -- -- -- --
2019-07-26 07:00:00 -- -- -- -- -- -- -- -- --
2019-07-26 06:00:00 -- -- -- -- -- -- -- -- --
2019-07-26 05:00:00 -- -- -- -- -- -- -- -- --
2019-07-26 04:00:00 -- -- -- -- -- -- -- -- --
2019-07-26 03:00:00 19.2 4 Sudoeste -- -- -- 1014.5 -- 87
2019-07-26 02:00:00 -- -- -- -- -- -- -- -- --
2019-07-26 01:00:00 -- -- -- -- -- -- -- -- --
2019-07-26 00:00:00 -- -- -- -- -- -- -- -- --
2019-07-25 23:00:00 -- -- -- -- -- -- -- -- --
2019-07-25 22:00:00 -- -- -- -- -- -- -- -- --
2019-07-25 21:00:00 -- -- -- -- -- -- -- -- --
2019-07-25 20:00:00 -- -- -- -- -- -- -- -- --
2019-07-25 19:00:00 -- -- -- -- -- -- -- -- --
2019-07-25 18:00:00 -- -- -- -- -- -- -- -- --
2019-07-25 17:00:00 -- -- -- -- -- -- -- -- --
2019-07-25 16:00:00 -- -- -- -- -- -- -- -- --
2019-07-25 15:00:00 -- -- -- -- -- -- -- -- --
2019-07-25 14:00:00 -- -- -- -- -- -- -- -- --
2019-07-25 13:00:00 -- -- -- -- -- -- -- -- --
2019-07-25 12:00:00 -- -- -- -- -- -- -- -- --
2019-07-25 11:00:00 -- -- -- -- -- -- -- -- --
2019-07-25 10:00:00 -- -- -- -- -- -- -- -- --
2019-07-25 09:00:00 -- -- -- -- -- -- -- -- --
2019-07-25 08:00:00 -- -- -- -- -- -- -- -- --
2019-07-25 07:00:00 -- -- -- -- -- -- -- -- --
2019-07-25 06:00:00 -- -- -- -- -- -- -- -- --
2019-07-25 05:00:00 -- -- -- -- -- -- -- -- --
2019-07-25 04:00:00 -- -- -- -- -- -- -- -- --
2019-07-25 03:00:00 -- -- -- -- -- -- -- -- --
2019-07-25 02:00:00 -- -- -- -- -- -- -- -- --
2019-07-25 01:00:00 -- -- -- -- -- -- -- -- --
2019-07-25 00:00:00 -- -- -- -- -- -- -- -- --
2019-07-24 23:00:00 -- -- -- -- -- -- -- -- --
2019-07-24 22:00:00 -- -- -- -- -- -- -- -- --
2019-07-24 21:00:00 -- -- -- -- -- -- -- -- --
2019-07-24 20:00:00 -- -- -- -- -- -- -- -- --
2019-07-24 19:00:00 -- -- -- -- -- -- -- -- --
2019-07-24 18:00:00 -- -- -- -- -- -- -- -- --
2019-07-24 17:00:00 -- -- -- -- -- -- -- -- --
2019-07-24 16:00:00 -- -- -- -- -- -- -- -- --
2019-07-24 15:00:00 -- -- -- -- -- -- -- -- --
2019-07-24 14:00:00 -- -- -- -- -- -- -- -- --
2019-07-24 13:00:00 -- -- -- -- -- -- -- -- --
2019-07-24 12:00:00 -- -- -- -- -- -- -- -- --
2019-07-24 11:00:00 -- -- -- -- -- -- -- -- --
2019-07-24 10:00:00 -- -- -- -- -- -- -- -- --
2019-07-24 09:00:00 -- -- -- -- -- -- -- -- --
2019-07-24 08:00:00 -- -- -- -- -- -- -- -- --
2019-07-24 07:00:00 -- -- -- -- -- -- -- -- --
2019-07-24 06:00:00 -- -- -- -- -- -- -- -- --
2019-07-24 05:00:00 -- -- -- -- -- -- -- -- --
2019-07-24 04:00:00 -- -- -- -- -- -- -- -- --
2019-07-24 03:00:00 -- -- -- -- -- -- -- -- --
2019-07-24 02:00:00 21 4 Oeste -- -- -- 1015.2 -- 84
2019-07-24 01:00:00 -- -- -- -- -- -- -- -- --
2019-07-24 00:00:00 -- -- -- -- -- -- -- -- --
2019-07-23 23:00:00 -- -- -- -- -- -- -- -- --
2019-07-23 22:00:00 -- -- -- -- -- -- -- -- --
2019-07-23 21:00:00 -- -- -- -- -- -- -- -- --
2019-07-23 20:00:00 -- -- -- -- -- -- -- -- --
2019-07-23 19:00:00 -- -- -- -- -- -- -- -- --
2019-07-23 18:00:00 -- -- -- -- -- -- -- -- --
2019-07-23 17:00:00 -- -- -- -- -- -- -- -- --
2019-07-23 16:00:00 -- -- -- -- -- -- -- -- --
2019-07-23 15:00:00 -- -- -- -- -- -- -- -- --
2019-07-23 14:00:00 -- -- -- -- -- -- -- -- --
2019-07-23 13:00:00 -- -- -- -- -- -- -- -- --
2019-07-23 12:00:00 -- -- -- -- -- -- -- -- --
2019-07-23 11:00:00 -- -- -- -- -- -- -- -- --
2019-07-23 10:00:00 -- -- -- -- -- -- -- -- --
2019-07-23 09:00:00 -- -- -- -- -- -- -- -- --
2019-07-23 08:00:00 -- -- -- -- -- -- -- -- --
2019-07-23 07:00:00 -- -- -- -- -- -- -- -- --
2019-07-23 06:00:00 -- -- -- -- -- -- -- -- --
2019-07-23 05:00:00 -- -- -- -- -- -- -- -- --
2019-07-23 04:00:00 -- -- -- -- -- -- -- -- --
2019-07-23 03:00:00 21.2 -- -- -- -- -- 1014.2 -- 85
2019-07-23 02:00:00 21 14 Oeste -- -- -- 1014 -- 85
2019-07-23 01:00:00 -- -- -- -- -- -- -- -- --
2019-07-23 00:00:00 -- -- -- -- -- -- -- -- --
2019-07-22 23:00:00 -- -- -- -- -- -- -- -- --
2019-07-22 22:00:00 -- -- -- -- -- -- -- -- --
2019-07-22 21:00:00 22.4 5 Este 13 Nordeste 0 1016.4 -- 82
2019-07-22 20:00:00 22.7 2 Este 6 Este 0 1016.3 -- 82
2019-07-22 19:00:00 22.6 4 Este -- -- -- 1016.8 -- 82
2019-07-22 18:00:00 -- -- -- -- -- -- -- -- --
2019-07-22 17:00:00 -- -- -- -- -- -- -- -- --
2019-07-22 16:00:00 -- -- -- -- -- -- -- -- --
2019-07-22 15:00:00 -- -- -- -- -- -- -- -- --
2019-07-22 14:00:00 -- -- -- -- -- -- -- -- --
2019-07-22 13:00:00 -- -- -- -- -- -- -- -- --
2019-07-22 12:00:00 -- -- -- -- -- -- -- -- --
2019-07-22 11:00:00 -- -- -- -- -- -- -- -- --
2019-07-22 10:00:00 -- -- -- -- -- -- -- -- --
2019-07-22 09:00:00 -- -- -- -- -- -- -- -- --
2019-07-22 08:00:00 -- -- -- -- -- -- -- -- --
2019-07-22 07:00:00 -- -- -- -- -- -- -- -- --
2019-07-22 06:00:00 -- -- -- -- -- -- -- -- --
2019-07-22 05:00:00 -- -- -- -- -- -- -- -- --
2019-07-22 04:00:00 20.8 9 Sudeste 13 Este 0 1020.7 -- 83
2019-07-22 03:00:00 20.9 6 Este -- -- -- 1021.2 -- 83
2019-07-22 02:00:00 -- -- -- -- -- -- -- -- --
2019-07-22 01:00:00 -- -- -- -- -- -- -- -- --
2019-07-22 00:00:00 -- -- -- -- -- -- -- -- --
2019-07-21 23:00:00 -- -- -- -- -- -- -- -- --
2019-07-21 22:00:00 -- -- -- -- -- -- -- -- --
2019-07-21 21:00:00 -- -- -- -- -- -- -- -- --
2019-07-21 20:00:00 -- -- -- -- -- -- -- -- --
2019-07-21 19:00:00 -- -- -- -- -- -- -- -- --
2019-07-21 18:00:00 -- -- -- -- -- -- -- -- --
2019-07-21 17:00:00 -- -- -- -- -- -- -- -- --
2019-07-21 16:00:00 -- -- -- -- -- -- -- -- --
2019-07-21 15:00:00 -- -- -- -- -- -- -- -- --
2019-07-21 14:00:00 -- -- -- -- -- -- -- -- --
2019-07-21 13:00:00 -- -- -- -- -- -- -- -- --
2019-07-21 12:00:00 -- -- -- -- -- -- -- -- --
2019-07-21 11:00:00 -- -- -- -- -- -- -- -- --
2019-07-21 10:00:00 -- -- -- -- -- -- -- -- --
2019-07-21 09:00:00 -- -- -- -- -- -- -- -- --
2019-07-21 08:00:00 -- -- -- -- -- -- -- -- --
2019-07-21 07:00:00 -- -- -- -- -- -- -- -- --
2019-07-21 06:00:00 -- -- -- -- -- -- -- -- --
2019-07-21 05:00:00 -- -- -- -- -- -- -- -- --
2019-07-21 04:00:00 -- -- -- -- -- -- -- -- --
2019-07-21 03:00:00 -- -- -- -- -- -- -- -- --
2019-07-21 02:00:00 -- -- -- -- -- -- -- -- --
2019-07-21 01:00:00 -- -- -- -- -- -- -- -- --
2019-07-21 00:00:00 -- -- -- -- -- -- -- -- --